sensor_id;sensor_type;location;lat;lon;timestamp;P1;durP1;ratioP1;P2;durP2;ratioP2
20945;SDS011;10632;51.276;7.116;2023-07-30T00:01:11;8.20;;;2.20;;
20945;SDS011;10632;51.276;7.116;2023-07-30T00:03:38;5.60;;;2.05;;
20945;SDS011;10632;51.276;7.116;2023-07-30T00:06:05;4.90;;;1.98;;
20945;SDS011;10632;51.276;7.116;2023-07-30T00:08:32;4.25;;;1.85;;
20945;SDS011;10632;51.276;7.116;2023-07-30T00:11:01;4.97;;;2.00;;
20945;SDS011;10632;51.276;7.116;2023-07-30T00:13:28;5.13;;;1.55;;
20945;SDS011;10632;51.276;7.116;2023-07-30T00:15:54;4.63;;;1.92;;
20945;SDS011;10632;51.276;7.116;2023-07-30T00:18:21;4.10;;;1.70;;
20945;SDS011;10632;51.276;7.116;2023-07-30T00:20:48;3.38;;;1.48;;
20945;SDS011;10632;51.276;7.116;2023-07-30T00:23:15;3.75;;;1.55;;
20945;SDS011;10632;51.276;7.116;2023-07-30T00:25:42;4.85;;;1.73;;
20945;SDS011;10632;51.276;7.116;2023-07-30T00:28:10;3.97;;;1.60;;
20945;SDS011;10632;51.276;7.116;2023-07-30T00:30:37;7.53;;;1.75;;
20945;SDS011;10632;51.276;7.116;2023-07-30T00:33:04;2.97;;;1.33;;
20945;SDS011;10632;51.276;7.116;2023-07-30T00:35:31;3.50;;;1.58;;
20945;SDS011;10632;51.276;7.116;2023-07-30T00:37:57;3.20;;;1.40;;
20945;SDS011;10632;51.276;7.116;2023-07-30T00:40:24;3.05;;;1.33;;
20945;SDS011;10632;51.276;7.116;2023-07-30T00:42:51;4.97;;;1.63;;
20945;SDS011;10632;51.276;7.116;2023-07-30T00:45:19;2.90;;;1.40;;
20945;SDS011;10632;51.276;7.116;2023-07-30T00:47:46;2.42;;;1.20;;
20945;SDS011;10632;51.276;7.116;2023-07-30T00:50:14;3.35;;;1.38;;
20945;SDS011;10632;51.276;7.116;2023-07-30T00:52:43;3.50;;;1.38;;
20945;SDS011;10632;51.276;7.116;2023-07-30T00:55:10;2.72;;;1.13;;
20945;SDS011;10632;51.276;7.116;2023-07-30T00:57:37;4.20;;;1.20;;
20945;SDS011;10632;51.276;7.116;2023-07-30T01:00:08;3.55;;;1.10;;
20945;SDS011;10632;51.276;7.116;2023-07-30T01:02:54;4.07;;;1.38;;
20945;SDS011;10632;51.276;7.116;2023-07-30T01:05:22;3.33;;;1.15;;
20945;SDS011;10632;51.276;7.116;2023-07-30T01:07:49;3.72;;;1.17;;
20945;SDS011;10632;51.276;7.116;2023-07-30T01:10:17;3.50;;;1.50;;
20945;SDS011;10632;51.276;7.116;2023-07-30T01:12:44;5.32;;;1.33;;
20945;SDS011;10632;51.276;7.116;2023-07-30T01:15:12;5.60;;;1.25;;
20945;SDS011;10632;51.276;7.116;2023-07-30T01:17:40;7.18;;;1.08;;
20945;SDS011;10632;51.276;7.116;2023-07-30T01:20:12;3.45;;;1.20;;
20945;SDS011;10632;51.276;7.116;2023-07-30T01:22:40;5.18;;;1.10;;
20945;SDS011;10632;51.276;7.116;2023-07-30T01:25:08;2.55;;;1.00;;
20945;SDS011;10632;51.276;7.116;2023-07-30T01:27:36;2.80;;;1.20;;
20945;SDS011;10632;51.276;7.116;2023-07-30T01:30:08;4.65;;;1.10;;
20945;SDS011;10632;51.276;7.116;2023-07-30T01:32:42;2.53;;;1.08;;
20945;SDS011;10632;51.276;7.116;2023-07-30T01:35:10;6.13;;;1.25;;
20945;SDS011;10632;51.276;7.116;2023-07-30T01:37:40;2.85;;;1.20;;
20945;SDS011;10632;51.276;7.116;2023-07-30T01:40:10;4.43;;;1.40;;
20945;SDS011;10632;51.276;7.116;2023-07-30T01:42:39;4.43;;;1.27;;
20945;SDS011;10632;51.276;7.116;2023-07-30T01:45:06;2.97;;;1.10;;
20945;SDS011;10632;51.276;7.116;2023-07-30T01:47:33;4.18;;;1.58;;
20945;SDS011;10632;51.276;7.116;2023-07-30T01:50:00;5.47;;;1.25;;
20945;SDS011;10632;51.276;7.116;2023-07-30T01:52:28;3.35;;;1.15;;
20945;SDS011;10632;51.276;7.116;2023-07-30T01:54:57;2.90;;;1.33;;
20945;SDS011;10632;51.276;7.116;2023-07-30T01:59:53;2.95;;;1.10;;
20945;SDS011;10632;51.276;7.116;2023-07-30T02:02:20;3.05;;;1.13;;
20945;SDS011;10632;51.276;7.116;2023-07-30T02:04:47;3.92;;;1.25;;
20945;SDS011;10632;51.276;7.116;2023-07-30T02:07:14;7.32;;;1.35;;
20945;SDS011;10632;51.276;7.116;2023-07-30T02:09:41;5.57;;;1.45;;
20945;SDS011;10632;51.276;7.116;2023-07-30T02:12:10;5.72;;;1.00;;
20945;SDS011;10632;51.276;7.116;2023-07-30T02:14:37;8.50;;;1.60;;
20945;SDS011;10632;51.276;7.116;2023-07-30T02:17:10;3.83;;;1.10;;
20945;SDS011;10632;51.276;7.116;2023-07-30T02:19:37;6.32;;;1.40;;
20945;SDS011;10632;51.276;7.116;2023-07-30T02:22:04;4.97;;;1.23;;
20945;SDS011;10632;51.276;7.116;2023-07-30T02:24:31;2.60;;;1.00;;
20945;SDS011;10632;51.276;7.116;2023-07-30T02:26:58;2.63;;;1.00;;
20945;SDS011;10632;51.276;7.116;2023-07-30T02:29:26;2.03;;;1.08;;
20945;SDS011;10632;51.276;7.116;2023-07-30T02:31:54;2.40;;;1.02;;
20945;SDS011;10632;51.276;7.116;2023-07-30T02:34:21;4.95;;;1.02;;
20945;SDS011;10632;51.276;7.116;2023-07-30T02:36:48;3.92;;;1.25;;
20945;SDS011;10632;51.276;7.116;2023-07-30T02:39:15;2.65;;;1.20;;
20945;SDS011;10632;51.276;7.116;2023-07-30T02:41:43;4.57;;;1.15;;
20945;SDS011;10632;51.276;7.116;2023-07-30T02:44:10;3.05;;;1.20;;
20945;SDS011;10632;51.276;7.116;2023-07-30T02:46:38;2.95;;;1.02;;
20945;SDS011;10632;51.276;7.116;2023-07-30T02:49:05;5.30;;;1.10;;
20945;SDS011;10632;51.276;7.116;2023-07-30T02:51:32;4.78;;;1.20;;
20945;SDS011;10632;51.276;7.116;2023-07-30T02:53:58;4.13;;;1.30;;
20945;SDS011;10632;51.276;7.116;2023-07-30T02:56:30;3.50;;;1.38;;
20945;SDS011;10632;51.276;7.116;2023-07-30T02:58:58;3.97;;;1.10;;
20945;SDS011;10632;51.276;7.116;2023-07-30T03:01:25;3.30;;;1.10;;
20945;SDS011;10632;51.276;7.116;2023-07-30T03:03:53;3.53;;;1.02;;
20945;SDS011;10632;51.276;7.116;2023-07-30T03:06:20;4.05;;;1.00;;
20945;SDS011;10632;51.276;7.116;2023-07-30T03:08:50;5.80;;;1.30;;
20945;SDS011;10632;51.276;7.116;2023-07-30T03:11:17;4.88;;;1.20;;
20945;SDS011;10632;51.276;7.116;2023-07-30T03:13:44;5.30;;;1.27;;
20945;SDS011;10632;51.276;7.116;2023-07-30T03:16:11;2.33;;;1.02;;
20945;SDS011;10632;51.276;7.116;2023-07-30T03:18:37;4.10;;;1.45;;
20945;SDS011;10632;51.276;7.116;2023-07-30T03:21:06;6.53;;;1.35;;
20945;SDS011;10632;51.276;7.116;2023-07-30T03:23:32;3.40;;;1.35;;
20945;SDS011;10632;51.276;7.116;2023-07-30T03:25:59;3.05;;;1.25;;
20945;SDS011;10632;51.276;7.116;2023-07-30T03:28:26;4.00;;;1.50;;
20945;SDS011;10632;51.276;7.116;2023-07-30T03:30:53;4.57;;;1.20;;
20945;SDS011;10632;51.276;7.116;2023-07-30T03:33:20;4.57;;;1.50;;
20945;SDS011;10632;51.276;7.116;2023-07-30T03:35:47;4.15;;;1.30;;
20945;SDS011;10632;51.276;7.116;2023-07-30T03:38:15;4.13;;;1.23;;
20945;SDS011;10632;51.276;7.116;2023-07-30T03:40:42;3.88;;;1.40;;
20945;SDS011;10632;51.276;7.116;2023-07-30T03:43:09;7.97;;;1.75;;
20945;SDS011;10632;51.276;7.116;2023-07-30T03:45:36;4.55;;;1.55;;
20945;SDS011;10632;51.276;7.116;2023-07-30T03:48:03;5.78;;;1.40;;
20945;SDS011;10632;51.276;7.116;2023-07-30T03:50:30;2.97;;;1.20;;
20945;SDS011;10632;51.276;7.116;2023-07-30T03:52:56;4.72;;;1.27;;
20945;SDS011;10632;51.276;7.116;2023-07-30T03:55:25;5.78;;;1.40;;
20945;SDS011;10632;51.276;7.116;2023-07-30T03:57:52;7.43;;;1.67;;
20945;SDS011;10632;51.276;7.116;2023-07-30T04:00:18;4.47;;;1.02;;
20945;SDS011;10632;51.276;7.116;2023-07-30T04:02:45;3.08;;;1.00;;
20945;SDS011;10632;51.276;7.116;2023-07-30T04:05:13;9.25;;;1.67;;
20945;SDS011;10632;51.276;7.116;2023-07-30T04:07:40;3.30;;;1.08;;
20945;SDS011;10632;51.276;7.116;2023-07-30T04:10:07;3.75;;;1.20;;
20945;SDS011;10632;51.276;7.116;2023-07-30T04:12:35;3.05;;;1.20;;
20945;SDS011;10632;51.276;7.116;2023-07-30T04:15:02;5.80;;;1.48;;
20945;SDS011;10632;51.276;7.116;2023-07-30T04:17:30;3.13;;;1.30;;
20945;SDS011;10632;51.276;7.116;2023-07-30T04:19:57;2.38;;;0.95;;
20945;SDS011;10632;51.276;7.116;2023-07-30T04:22:24;4.28;;;1.08;;
20945;SDS011;10632;51.276;7.116;2023-07-30T04:24:51;4.25;;;1.23;;
20945;SDS011;10632;51.276;7.116;2023-07-30T04:27:18;5.88;;;1.02;;
20945;SDS011;10632;51.276;7.116;2023-07-30T04:29:51;3.80;;;1.08;;
20945;SDS011;10632;51.276;7.116;2023-07-30T04:32:18;4.28;;;1.20;;
20945;SDS011;10632;51.276;7.116;2023-07-30T04:34:45;7.05;;;1.20;;
20945;SDS011;10632;51.276;7.116;2023-07-30T04:37:12;8.57;;;1.20;;
20945;SDS011;10632;51.276;7.116;2023-07-30T04:39:39;3.95;;;0.98;;
20945;SDS011;10632;51.276;7.116;2023-07-30T04:42:06;7.95;;;1.35;;
20945;SDS011;10632;51.276;7.116;2023-07-30T04:44:33;4.00;;;1.10;;
20945;SDS011;10632;51.276;7.116;2023-07-30T04:47:01;5.13;;;1.15;;
20945;SDS011;10632;51.276;7.116;2023-07-30T04:49:28;5.32;;;1.27;;
20945;SDS011;10632;51.276;7.116;2023-07-30T04:51:55;3.05;;;1.10;;
20945;SDS011;10632;51.276;7.116;2023-07-30T04:54:22;3.47;;;0.93;;
20945;SDS011;10632;51.276;7.116;2023-07-30T04:56:49;2.08;;;1.02;;
20945;SDS011;10632;51.276;7.116;2023-07-30T04:59:16;7.22;;;1.17;;
20945;SDS011;10632;51.276;7.116;2023-07-30T05:01:43;4.97;;;1.55;;
20945;SDS011;10632;51.276;7.116;2023-07-30T05:04:11;3.92;;;1.30;;
20945;SDS011;10632;51.276;7.116;2023-07-30T05:06:38;5.55;;;1.13;;
20945;SDS011;10632;51.276;7.116;2023-07-30T05:09:05;7.07;;;1.42;;
20945;SDS011;10632;51.276;7.116;2023-07-30T05:11:32;4.07;;;1.02;;
20945;SDS011;10632;51.276;7.116;2023-07-30T05:13:59;4.50;;;1.35;;
20945;SDS011;10632;51.276;7.116;2023-07-30T05:16:26;3.10;;;1.23;;
20945;SDS011;10632;51.276;7.116;2023-07-30T05:18:53;3.88;;;1.30;;
20945;SDS011;10632;51.276;7.116;2023-07-30T05:21:22;3.65;;;0.98;;
20945;SDS011;10632;51.276;7.116;2023-07-30T05:23:49;2.80;;;1.02;;
20945;SDS011;10632;51.276;7.116;2023-07-30T05:26:16;5.25;;;1.00;;
20945;SDS011;10632;51.276;7.116;2023-07-30T05:28:43;5.32;;;1.27;;
20945;SDS011;10632;51.276;7.116;2023-07-30T05:31:11;3.20;;;1.10;;
20945;SDS011;10632;51.276;7.116;2023-07-30T05:33:38;4.63;;;1.08;;
20945;SDS011;10632;51.276;7.116;2023-07-30T05:36:05;2.08;;;0.80;;
20945;SDS011;10632;51.276;7.116;2023-07-30T05:38:34;2.15;;;0.77;;
20945;SDS011;10632;51.276;7.116;2023-07-30T05:41:01;3.13;;;0.88;;
20945;SDS011;10632;51.276;7.116;2023-07-30T05:43:28;4.85;;;1.00;;
20945;SDS011;10632;51.276;7.116;2023-07-30T05:45:55;4.00;;;1.05;;
20945;SDS011;10632;51.276;7.116;2023-07-30T05:48:22;3.88;;;0.70;;
20945;SDS011;10632;51.276;7.116;2023-07-30T05:50:49;4.25;;;0.55;;
20945;SDS011;10632;51.276;7.116;2023-07-30T05:53:16;11.38;;;1.40;;
20945;SDS011;10632;51.276;7.116;2023-07-30T05:55:44;5.25;;;1.10;;
20945;SDS011;10632;51.276;7.116;2023-07-30T05:58:12;2.92;;;1.00;;
20945;SDS011;10632;51.276;7.116;2023-07-30T06:00:42;2.97;;;0.65;;
20945;SDS011;10632;51.276;7.116;2023-07-30T06:03:09;3.50;;;0.90;;
20945;SDS011;10632;51.276;7.116;2023-07-30T06:05:38;1.88;;;0.55;;
20945;SDS011;10632;51.276;7.116;2023-07-30T06:08:06;3.17;;;0.80;;
20945;SDS011;10632;51.276;7.116;2023-07-30T06:10:34;9.55;;;0.70;;
20945;SDS011;10632;51.276;7.116;2023-07-30T06:13:03;2.90;;;0.60;;
20945;SDS011;10632;51.276;7.116;2023-07-30T06:15:30;3.42;;;0.80;;
20945;SDS011;10632;51.276;7.116;2023-07-30T06:17:57;2.67;;;0.63;;
20945;SDS011;10632;51.276;7.116;2023-07-30T06:20:24;1.70;;;0.80;;
20945;SDS011;10632;51.276;7.116;2023-07-30T06:22:51;3.20;;;0.82;;
20945;SDS011;10632;51.276;7.116;2023-07-30T06:25:18;4.30;;;0.80;;
20945;SDS011;10632;51.276;7.116;2023-07-30T06:27:44;1.58;;;0.80;;
20945;SDS011;10632;51.276;7.116;2023-07-30T06:30:13;4.45;;;0.90;;
20945;SDS011;10632;51.276;7.116;2023-07-30T06:32:40;3.72;;;0.75;;
20945;SDS011;10632;51.276;7.116;2023-07-30T06:35:07;3.15;;;0.88;;
20945;SDS011;10632;51.276;7.116;2023-07-30T06:37:34;2.03;;;0.80;;
20945;SDS011;10632;51.276;7.116;2023-07-30T06:40:01;2.60;;;0.80;;
20945;SDS011;10632;51.276;7.116;2023-07-30T06:42:31;7.72;;;0.90;;
20945;SDS011;10632;51.276;7.116;2023-07-30T06:44:58;3.03;;;0.90;;
20945;SDS011;10632;51.276;7.116;2023-07-30T06:47:26;5.68;;;1.02;;
20945;SDS011;10632;51.276;7.116;2023-07-30T06:49:53;7.00;;;0.73;;
20945;SDS011;10632;51.276;7.116;2023-07-30T06:52:20;7.05;;;0.80;;
20945;SDS011;10632;51.276;7.116;2023-07-30T06:54:47;1.80;;;0.80;;
20945;SDS011;10632;51.276;7.116;2023-07-30T06:57:13;4.10;;;1.00;;
20945;SDS011;10632;51.276;7.116;2023-07-30T06:59:40;3.08;;;1.00;;
20945;SDS011;10632;51.276;7.116;2023-07-30T07:02:07;5.07;;;0.90;;
20945;SDS011;10632;51.276;7.116;2023-07-30T07:04:45;3.30;;;1.00;;
20945;SDS011;10632;51.276;7.116;2023-07-30T07:07:11;2.53;;;0.70;;
20945;SDS011;10632;51.276;7.116;2023-07-30T07:09:38;5.97;;;1.00;;
20945;SDS011;10632;51.276;7.116;2023-07-30T07:12:05;1.98;;;0.70;;
20945;SDS011;10632;51.276;7.116;2023-07-30T07:14:33;4.05;;;1.08;;
20945;SDS011;10632;51.276;7.116;2023-07-30T07:16:59;2.60;;;1.00;;
20945;SDS011;10632;51.276;7.116;2023-07-30T07:19:26;5.53;;;0.80;;
20945;SDS011;10632;51.276;7.116;2023-07-30T07:21:55;2.03;;;0.75;;
20945;SDS011;10632;51.276;7.116;2023-07-30T07:24:21;2.55;;;0.80;;
20945;SDS011;10632;51.276;7.116;2023-07-30T07:26:48;3.53;;;1.23;;
20945;SDS011;10632;51.276;7.116;2023-07-30T07:29:15;3.38;;;1.20;;
20945;SDS011;10632;51.276;7.116;2023-07-30T07:31:42;8.60;;;1.20;;
20945;SDS011;10632;51.276;7.116;2023-07-30T07:34:09;4.50;;;1.05;;
20945;SDS011;10632;51.276;7.116;2023-07-30T07:36:38;5.38;;;1.10;;
20945;SDS011;10632;51.276;7.116;2023-07-30T07:39:07;2.95;;;0.90;;
20945;SDS011;10632;51.276;7.116;2023-07-30T07:41:34;3.75;;;0.95;;
20945;SDS011;10632;51.276;7.116;2023-07-30T07:44:00;3.35;;;1.20;;
20945;SDS011;10632;51.276;7.116;2023-07-30T07:46:27;5.55;;;1.35;;
20945;SDS011;10632;51.276;7.116;2023-07-30T07:48:54;7.47;;;1.30;;
20945;SDS011;10632;51.276;7.116;2023-07-30T07:51:21;5.57;;;1.25;;
20945;SDS011;10632;51.276;7.116;2023-07-30T07:53:48;8.43;;;1.38;;
20945;SDS011;10632;51.276;7.116;2023-07-30T07:56:16;4.82;;;1.00;;
20945;SDS011;10632;51.276;7.116;2023-07-30T07:58:43;3.72;;;0.77;;
20945;SDS011;10632;51.276;7.116;2023-07-30T08:01:10;4.18;;;1.35;;
20945;SDS011;10632;51.276;7.116;2023-07-30T08:03:36;6.13;;;1.35;;
20945;SDS011;10632;51.276;7.116;2023-07-30T08:06:03;6.57;;;1.50;;
20945;SDS011;10632;51.276;7.116;2023-07-30T08:08:31;5.35;;;1.30;;
20945;SDS011;10632;51.276;7.116;2023-07-30T08:10:58;6.97;;;1.30;;
20945;SDS011;10632;51.276;7.116;2023-07-30T08:13:31;5.28;;;1.20;;
20945;SDS011;10632;51.276;7.116;2023-07-30T08:15:58;5.07;;;1.20;;
20945;SDS011;10632;51.276;7.116;2023-07-30T08:18:25;7.22;;;1.27;;
20945;SDS011;10632;51.276;7.116;2023-07-30T08:20:52;5.10;;;1.08;;
20945;SDS011;10632;51.276;7.116;2023-07-30T08:23:19;7.60;;;1.20;;
20945;SDS011;10632;51.276;7.116;2023-07-30T08:25:46;5.32;;;1.20;;
20945;SDS011;10632;51.276;7.116;2023-07-30T08:28:14;4.97;;;1.23;;
20945;SDS011;10632;51.276;7.116;2023-07-30T08:30:43;7.18;;;1.50;;
20945;SDS011;10632;51.276;7.116;2023-07-30T08:33:10;5.75;;;1.40;;
20945;SDS011;10632;51.276;7.116;2023-07-30T08:35:36;4.63;;;1.35;;
20945;SDS011;10632;51.276;7.116;2023-07-30T08:38:03;6.40;;;1.77;;
20945;SDS011;10632;51.276;7.116;2023-07-30T08:40:30;7.78;;;1.70;;
20945;SDS011;10632;51.276;7.116;2023-07-30T08:42:58;12.02;;;1.88;;
20945;SDS011;10632;51.276;7.116;2023-07-30T08:45:24;3.90;;;1.50;;
20945;SDS011;10632;51.276;7.116;2023-07-30T08:47:53;6.10;;;1.70;;
20945;SDS011;10632;51.276;7.116;2023-07-30T08:50:19;4.53;;;1.50;;
20945;SDS011;10632;51.276;7.116;2023-07-30T08:52:46;6.28;;;1.80;;
20945;SDS011;10632;51.276;7.116;2023-07-30T08:55:14;5.45;;;1.80;;
20945;SDS011;10632;51.276;7.116;2023-07-30T08:57:42;4.05;;;1.70;;
20945;SDS011;10632;51.276;7.116;2023-07-30T09:00:11;7.80;;;1.70;;
20945;SDS011;10632;51.276;7.116;2023-07-30T09:02:41;5.13;;;1.83;;
20945;SDS011;10632;51.276;7.116;2023-07-30T09:05:13;9.38;;;1.83;;
20945;SDS011;10632;51.276;7.116;2023-07-30T09:07:40;8.60;;;1.92;;
20945;SDS011;10632;51.276;7.116;2023-07-30T09:10:08;8.25;;;1.88;;
20945;SDS011;10632;51.276;7.116;2023-07-30T09:12:35;7.25;;;2.08;;
20945;SDS011;10632;51.276;7.116;2023-07-30T09:15:02;10.85;;;1.88;;
20945;SDS011;10632;51.276;7.116;2023-07-30T09:17:30;5.38;;;1.83;;
20945;SDS011;10632;51.276;7.116;2023-07-30T09:19:58;7.10;;;1.80;;
20945;SDS011;10632;51.276;7.116;2023-07-30T09:22:27;6.40;;;1.75;;
20945;SDS011;10632;51.276;7.116;2023-07-30T09:24:55;9.45;;;1.98;;
20945;SDS011;10632;51.276;7.116;2023-07-30T09:27:24;2.67;;;1.33;;
20945;SDS011;10632;51.276;7.116;2023-07-30T09:29:52;9.27;;;2.03;;
20945;SDS011;10632;51.276;7.116;2023-07-30T09:32:20;6.95;;;1.65;;
20945;SDS011;10632;51.276;7.116;2023-07-30T09:34:51;7.85;;;1.90;;
20945;SDS011;10632;51.276;7.116;2023-07-30T09:37:18;6.50;;;1.65;;
20945;SDS011;10632;51.276;7.116;2023-07-30T09:39:48;5.90;;;1.77;;
20945;SDS011;10632;51.276;7.116;2023-07-30T09:42:15;4.45;;;1.50;;
20945;SDS011;10632;51.276;7.116;2023-07-30T09:44:42;7.97;;;1.70;;
20945;SDS011;10632;51.276;7.116;2023-07-30T09:47:12;11.40;;;1.90;;
20945;SDS011;10632;51.276;7.116;2023-07-30T09:49:39;5.47;;;1.55;;
20945;SDS011;10632;51.276;7.116;2023-07-30T09:52:07;5.35;;;1.65;;
20945;SDS011;10632;51.276;7.116;2023-07-30T09:54:34;6.93;;;1.50;;
20945;SDS011;10632;51.276;7.116;2023-07-30T09:57:06;8.35;;;2.00;;
20945;SDS011;10632;51.276;7.116;2023-07-30T09:59:33;5.10;;;1.38;;
20945;SDS011;10632;51.276;7.116;2023-07-30T10:02:00;3.10;;;1.35;;
20945;SDS011;10632;51.276;7.116;2023-07-30T10:04:27;7.13;;;1.55;;
20945;SDS011;10632;51.276;7.116;2023-07-30T10:06:58;9.85;;;1.48;;
20945;SDS011;10632;51.276;7.116;2023-07-30T10:09:30;6.80;;;1.85;;
20945;SDS011;10632;51.276;7.116;2023-07-30T10:12:00;5.63;;;1.65;;
20945;SDS011;10632;51.276;7.116;2023-07-30T10:14:31;6.03;;;1.50;;
20945;SDS011;10632;51.276;7.116;2023-07-30T10:16:59;7.68;;;1.27;;
20945;SDS011;10632;51.276;7.116;2023-07-30T10:19:26;6.40;;;1.70;;
20945;SDS011;10632;51.276;7.116;2023-07-30T10:21:57;6.70;;;1.77;;
20945;SDS011;10632;51.276;7.116;2023-07-30T10:24:25;6.53;;;1.60;;
20945;SDS011;10632;51.276;7.116;2023-07-30T10:26:53;4.78;;;1.40;;
20945;SDS011;10632;51.276;7.116;2023-07-30T10:29:22;7.18;;;1.50;;
20945;SDS011;10632;51.276;7.116;2023-07-30T10:31:53;6.57;;;1.25;;
20945;SDS011;10632;51.276;7.116;2023-07-30T10:34:21;2.90;;;1.05;;
20945;SDS011;10632;51.276;7.116;2023-07-30T10:36:49;3.30;;;1.10;;
20945;SDS011;10632;51.276;7.116;2023-07-30T10:39:17;6.22;;;1.13;;
20945;SDS011;10632;51.276;7.116;2023-07-30T10:41:46;6.25;;;1.00;;
20945;SDS011;10632;51.276;7.116;2023-07-30T10:44:18;4.00;;;1.05;;
20945;SDS011;10632;51.276;7.116;2023-07-30T10:46:49;6.25;;;0.85;;
20945;SDS011;10632;51.276;7.116;2023-07-30T10:49:18;4.97;;;1.05;;
20945;SDS011;10632;51.276;7.116;2023-07-30T10:51:45;4.43;;;0.90;;
20945;SDS011;10632;51.276;7.116;2023-07-30T10:54:12;5.28;;;1.13;;
20945;SDS011;10632;51.276;7.116;2023-07-30T10:56:41;6.22;;;0.95;;
20945;SDS011;10632;51.276;7.116;2023-07-30T10:59:09;5.13;;;1.00;;
20945;SDS011;10632;51.276;7.116;2023-07-30T11:01:38;4.13;;;1.08;;
20945;SDS011;10632;51.276;7.116;2023-07-30T11:04:08;4.95;;;1.20;;
20945;SDS011;10632;51.276;7.116;2023-07-30T11:06:37;2.53;;;0.82;;
20945;SDS011;10632;51.276;7.116;2023-07-30T11:09:04;3.60;;;1.00;;
20945;SDS011;10632;51.276;7.116;2023-07-30T11:11:31;2.90;;;0.93;;
20945;SDS011;10632;51.276;7.116;2023-07-30T11:13:58;3.30;;;1.08;;
20945;SDS011;10632;51.276;7.116;2023-07-30T11:16:26;2.30;;;0.82;;
20945;SDS011;10632;51.276;7.116;2023-07-30T11:18:52;3.85;;;1.17;;
20945;SDS011;10632;51.276;7.116;2023-07-30T11:21:19;3.55;;;0.88;;
20945;SDS011;10632;51.276;7.116;2023-07-30T11:23:50;3.72;;;1.00;;
20945;SDS011;10632;51.276;7.116;2023-07-30T11:26:18;4.00;;;0.80;;
20945;SDS011;10632;51.276;7.116;2023-07-30T11:28:47;4.55;;;1.10;;
20945;SDS011;10632;51.276;7.116;2023-07-30T11:31:16;3.95;;;1.27;;
20945;SDS011;10632;51.276;7.116;2023-07-30T11:33:45;11.77;;;1.23;;
20945;SDS011;10632;51.276;7.116;2023-07-30T11:36:14;3.67;;;0.80;;
20945;SDS011;10632;51.276;7.116;2023-07-30T11:38:42;4.53;;;1.10;;
20945;SDS011;10632;51.276;7.116;2023-07-30T11:41:12;3.58;;;0.80;;
20945;SDS011;10632;51.276;7.116;2023-07-30T11:43:40;3.53;;;1.10;;
20945;SDS011;10632;51.276;7.116;2023-07-30T11:46:09;2.50;;;0.80;;
20945;SDS011;10632;51.276;7.116;2023-07-30T11:48:38;4.05;;;0.80;;
20945;SDS011;10632;51.276;7.116;2023-07-30T11:51:06;4.40;;;0.63;;
20945;SDS011;10632;51.276;7.116;2023-07-30T11:56:20;2.25;;;0.73;;
20945;SDS011;10632;51.276;7.116;2023-07-30T11:58:49;3.50;;;0.70;;
20945;SDS011;10632;51.276;7.116;2023-07-30T12:01:17;3.63;;;0.60;;
20945;SDS011;10632;51.276;7.116;2023-07-30T12:03:44;1.85;;;0.77;;
20945;SDS011;10632;51.276;7.116;2023-07-30T12:06:12;2.60;;;0.65;;
20945;SDS011;10632;51.276;7.116;2023-07-30T12:08:39;2.20;;;0.60;;
20945;SDS011;10632;51.276;7.116;2023-07-30T12:11:06;2.97;;;0.70;;
20945;SDS011;10632;51.276;7.116;2023-07-30T12:13:41;3.50;;;0.63;;
20945;SDS011;10632;51.276;7.116;2023-07-30T12:16:10;4.30;;;0.82;;
20945;SDS011;10632;51.276;7.116;2023-07-30T12:18:38;2.17;;;0.75;;
20945;SDS011;10632;51.276;7.116;2023-07-30T12:21:05;6.88;;;0.80;;
20945;SDS011;10632;51.276;7.116;2023-07-30T12:23:33;4.30;;;0.80;;
20945;SDS011;10632;51.276;7.116;2023-07-30T12:26:00;2.90;;;0.68;;
20945;SDS011;10632;51.276;7.116;2023-07-30T12:28:29;4.68;;;0.63;;
20945;SDS011;10632;51.276;7.116;2023-07-30T12:30:58;6.53;;;0.70;;
20945;SDS011;10632;51.276;7.116;2023-07-30T12:33:28;1.83;;;0.63;;
20945;SDS011;10632;51.276;7.116;2023-07-30T12:35:55;2.83;;;0.63;;
20945;SDS011;10632;51.276;7.116;2023-07-30T12:38:22;2.13;;;0.47;;
20945;SDS011;10632;51.276;7.116;2023-07-30T12:40:49;2.38;;;0.57;;
20945;SDS011;10632;51.276;7.116;2023-07-30T12:43:16;1.48;;;0.40;;
20945;SDS011;10632;51.276;7.116;2023-07-30T12:45:46;2.72;;;0.40;;
20945;SDS011;10632;51.276;7.116;2023-07-30T12:48:15;1.83;;;0.50;;
20945;SDS011;10632;51.276;7.116;2023-07-30T12:50:42;2.33;;;0.60;;
20945;SDS011;10632;51.276;7.116;2023-07-30T12:53:09;2.17;;;0.43;;
20945;SDS011;10632;51.276;7.116;2023-07-30T12:55:36;1.60;;;0.38;;
20945;SDS011;10632;51.276;7.116;2023-07-30T12:58:04;1.33;;;0.40;;
20945;SDS011;10632;51.276;7.116;2023-07-30T13:00:31;1.85;;;0.40;;
20945;SDS011;10632;51.276;7.116;2023-07-30T13:02:58;4.20;;;0.40;;
20945;SDS011;10632;51.276;7.116;2023-07-30T13:05:26;0.95;;;0.40;;
20945;SDS011;10632;51.276;7.116;2023-07-30T13:07:53;3.90;;;0.52;;
20945;SDS011;10632;51.276;7.116;2023-07-30T13:10:20;2.20;;;0.70;;
20945;SDS011;10632;51.276;7.116;2023-07-30T13:12:47;2.20;;;0.70;;
20945;SDS011;10632;51.276;7.116;2023-07-30T13:15:14;1.85;;;0.50;;
20945;SDS011;10632;51.276;7.116;2023-07-30T13:17:41;6.13;;;0.60;;
20945;SDS011;10632;51.276;7.116;2023-07-30T13:20:08;3.08;;;0.60;;
20945;SDS011;10632;51.276;7.116;2023-07-30T13:22:37;2.50;;;0.65;;
20945;SDS011;10632;51.276;7.116;2023-07-30T13:25:04;1.83;;;0.63;;
20945;SDS011;10632;51.276;7.116;2023-07-30T13:27:34;2.28;;;0.70;;
20945;SDS011;10632;51.276;7.116;2023-07-30T13:30:01;4.00;;;0.77;;
20945;SDS011;10632;51.276;7.116;2023-07-30T13:32:28;4.10;;;0.60;;
20945;SDS011;10632;51.276;7.116;2023-07-30T13:34:57;2.17;;;0.50;;
20945;SDS011;10632;51.276;7.116;2023-07-30T13:37:24;2.38;;;0.50;;
20945;SDS011;10632;51.276;7.116;2023-07-30T13:39:51;4.05;;;0.80;;
20945;SDS011;10632;51.276;7.116;2023-07-30T13:42:18;1.33;;;0.50;;
20945;SDS011;10632;51.276;7.116;2023-07-30T13:44:45;3.97;;;0.60;;
20945;SDS011;10632;51.276;7.116;2023-07-30T13:47:12;3.25;;;0.73;;
20945;SDS011;10632;51.276;7.116;2023-07-30T13:49:39;2.20;;;0.70;;
20945;SDS011;10632;51.276;7.116;2023-07-30T13:52:06;2.08;;;0.63;;
20945;SDS011;10632;51.276;7.116;2023-07-30T13:54:33;3.35;;;0.80;;
20945;SDS011;10632;51.276;7.116;2023-07-30T13:57:03;3.20;;;0.70;;
20945;SDS011;10632;51.276;7.116;2023-07-30T13:59:30;2.05;;;0.80;;
20945;SDS011;10632;51.276;7.116;2023-07-30T14:01:57;1.73;;;0.70;;
20945;SDS011;10632;51.276;7.116;2023-07-30T14:04:27;3.80;;;0.65;;
20945;SDS011;10632;51.276;7.116;2023-07-30T14:06:54;1.52;;;0.50;;
20945;SDS011;10632;51.276;7.116;2023-07-30T14:09:21;3.88;;;0.73;;
20945;SDS011;10632;51.276;7.116;2023-07-30T14:11:49;3.47;;;0.60;;
20945;SDS011;10632;51.276;7.116;2023-07-30T14:14:18;5.00;;;0.95;;
20945;SDS011;10632;51.276;7.116;2023-07-30T14:16:47;2.42;;;0.63;;
20945;SDS011;10632;51.276;7.116;2023-07-30T14:19:14;3.47;;;0.75;;
20945;SDS011;10632;51.276;7.116;2023-07-30T14:21:40;5.70;;;0.90;;
20945;SDS011;10632;51.276;7.116;2023-07-30T14:24:08;2.33;;;0.90;;
20945;SDS011;10632;51.276;7.116;2023-07-30T14:26:35;4.60;;;0.90;;
20945;SDS011;10632;51.276;7.116;2023-07-30T14:29:02;2.95;;;0.90;;
20945;SDS011;10632;51.276;7.116;2023-07-30T14:31:30;3.28;;;0.90;;
20945;SDS011;10632;51.276;7.116;2023-07-30T14:33:57;3.25;;;0.55;;
20945;SDS011;10632;51.276;7.116;2023-07-30T14:36:24;4.68;;;0.80;;
20945;SDS011;10632;51.276;7.116;2023-07-30T14:38:50;3.55;;;1.00;;
20945;SDS011;10632;51.276;7.116;2023-07-30T14:41:17;1.90;;;0.60;;
20945;SDS011;10632;51.276;7.116;2023-07-30T14:43:46;1.98;;;0.60;;
20945;SDS011;10632;51.276;7.116;2023-07-30T14:46:13;5.43;;;0.80;;
20945;SDS011;10632;51.276;7.116;2023-07-30T14:48:42;3.83;;;0.80;;
20945;SDS011;10632;51.276;7.116;2023-07-30T14:51:09;2.38;;;0.68;;
20945;SDS011;10632;51.276;7.116;2023-07-30T14:53:35;3.97;;;0.85;;
20945;SDS011;10632;51.276;7.116;2023-07-30T14:56:02;4.43;;;0.80;;